createdAt,value
2018-05-13T00:02:28.212Z,6.80
2018-05-13T00:07:19.687Z,7.30
2018-05-13T00:12:11.945Z,6.27
2018-05-13T00:17:04.204Z,6.17
2018-05-13T00:21:55.698Z,5.77
2018-05-13T00:26:47.211Z,5.90
2018-05-13T00:31:39.156Z,6.23
2018-05-13T00:36:30.713Z,6.33
2018-05-13T00:41:22.215Z,5.80
2018-05-13T00:46:13.743Z,6.30
2018-05-13T00:51:05.282Z,6.00
2018-05-13T00:55:56.786Z,5.80
2018-05-13T01:00:48.276Z,6.10
2018-05-13T01:05:39.777Z,5.77
2018-05-13T01:10:31.292Z,6.17
2018-05-13T01:15:22.762Z,6.40
2018-05-13T01:20:14.255Z,6.80
2018-05-13T01:25:05.826Z,6.43
2018-05-13T01:29:57.319Z,6.30
2018-05-13T01:34:48.832Z,6.70
2018-05-13T01:39:42.109Z,6.37
2018-05-13T01:44:34.330Z,6.40
2018-05-13T01:49:25.937Z,6.50
2018-05-13T01:54:17.442Z,6.43
2018-05-13T01:59:09.732Z,6.70
2018-05-13T02:04:01.228Z,7.00
2018-05-13T02:08:53.476Z,6.47
2018-05-13T02:13:45.738Z,6.20
2018-05-13T02:18:37.262Z,6.00
2018-05-13T02:23:28.771Z,6.40
2018-05-13T02:28:20.279Z,6.67
2018-05-13T02:33:11.781Z,6.20
2018-05-13T02:38:03.290Z,6.70
2018-05-13T02:42:55.906Z,5.67
2018-05-13T02:47:47.413Z,4.60
2018-05-13T02:52:39.098Z,3.90
2018-05-13T02:57:30.627Z,3.90
2018-05-13T03:02:22.117Z,3.87
2018-05-13T03:07:13.597Z,3.53
2018-05-13T03:12:05.093Z,3.50
2018-05-13T03:16:56.644Z,3.13
2018-05-13T03:21:48.149Z,3.43
2018-05-13T03:26:39.668Z,3.47
2018-05-13T03:31:32.268Z,3.60
2018-05-13T03:36:23.795Z,3.50
2018-05-13T03:41:15.266Z,3.50
2018-05-13T03:46:06.826Z,3.63
2018-05-13T03:50:59.059Z,4.07
2018-05-13T03:55:51.291Z,3.63
2018-05-13T04:00:42.789Z,4.07
2018-05-13T04:05:34.308Z,4.77
2018-05-13T04:10:44.430Z,4.37
2018-05-13T04:15:35.957Z,4.90
2018-05-13T04:20:29.115Z,5.30
2018-05-13T04:25:20.628Z,4.23
2018-05-13T04:30:12.140Z,4.43
2018-05-13T04:35:04.391Z,4.33
2018-05-13T04:39:56.629Z,5.10
2018-05-13T04:44:48.850Z,4.50
2018-05-13T04:49:40.330Z,4.30
2018-05-13T04:54:31.815Z,5.13
2018-05-13T04:59:23.487Z,4.80
2018-05-13T05:04:15.751Z,5.00
2018-05-13T05:09:07.245Z,6.07
2018-05-13T05:13:58.760Z,5.63
2018-05-13T05:18:50.256Z,7.00
2018-05-13T05:23:41.744Z,7.50
2018-05-13T05:28:33.312Z,7.47
2018-05-13T05:33:24.754Z,6.47
2018-05-13T05:38:16.238Z,6.80
2018-05-13T05:43:07.744Z,6.57
2018-05-13T05:48:00.189Z,6.93
2018-05-13T05:52:51.741Z,6.30
2018-05-13T05:57:43.253Z,6.80
2018-05-13T06:02:34.767Z,6.87
2018-05-13T06:07:26.983Z,6.13
2018-05-13T06:12:18.555Z,6.47
2018-05-13T06:17:10.011Z,6.23
2018-05-13T06:22:01.482Z,7.00
2018-05-13T06:26:52.988Z,6.30
2018-05-13T06:31:44.512Z,6.07
2018-05-13T06:36:36.017Z,7.20
2018-05-13T06:41:28.285Z,7.90
2018-05-13T06:46:19.786Z,9.93
2018-05-13T06:51:11.358Z,11.17
2018-05-13T06:56:03.104Z,11.00
2018-05-13T07:00:54.600Z,10.97
2018-05-13T07:05:46.815Z,12.00
2018-05-13T07:10:38.341Z,12.43
2018-05-13T07:15:29.832Z,12.13
2018-05-13T07:20:22.061Z,13.73
2018-05-13T07:25:13.567Z,14.33
2018-05-13T07:30:05.101Z,16.43
2018-05-13T07:34:56.615Z,17.67
2018-05-13T07:39:48.149Z,18.93
2018-05-13T07:44:39.673Z,20.23
2018-05-13T07:49:31.210Z,21.03
2018-05-13T07:54:22.705Z,21.50
2018-05-13T07:59:15.021Z,22.37
2018-05-13T08:04:06.576Z,21.83
2018-05-13T08:08:58.097Z,22.80
2018-05-13T08:13:49.796Z,20.83
2018-05-13T08:18:41.321Z,20.40
2018-05-13T08:23:32.855Z,21.80
2018-05-13T08:28:24.398Z,23.47
2018-05-13T08:33:15.899Z,22.13
2018-05-13T08:38:08.193Z,23.27
2018-05-13T08:42:59.755Z,22.67
2018-05-13T08:52:47.248Z,21.80
2018-05-13T08:57:38.731Z,22.40
2018-05-13T09:02:30.948Z,23.47
2018-05-13T09:07:23.269Z,23.83
2018-05-13T09:12:14.757Z,24.50
2018-05-13T09:17:06.251Z,27.67
2018-05-13T09:21:57.752Z,27.57
2018-05-13T09:26:49.342Z,27.23
2018-05-13T09:31:41.607Z,25.83
2018-05-13T09:36:33.122Z,27.20
2018-05-13T09:41:25.367Z,29.53
2018-05-13T09:46:17.606Z,28.87
2018-05-13T09:51:09.076Z,26.93
2018-05-13T09:56:00.582Z,28.83
2018-05-13T10:00:53.807Z,28.33
2018-05-13T10:05:45.323Z,28.27
2018-05-13T10:10:36.827Z,30.47
2018-05-13T10:15:29.072Z,29.67
2018-05-13T10:20:21.329Z,32.87
2018-05-13T10:25:13.601Z,33.77
2018-05-13T10:30:05.157Z,34.73
2018-05-13T10:34:56.668Z,35.97
2018-05-13T10:39:48.122Z,35.73
2018-05-13T10:44:39.611Z,35.90
2018-05-13T10:49:31.900Z,35.70
2018-05-13T10:54:23.457Z,34.30
2018-05-13T10:59:15.021Z,33.13
2018-05-13T11:04:06.536Z,36.20
2018-05-13T11:08:58.037Z,35.80
2018-05-13T11:13:49.572Z,34.80
2018-05-13T11:18:41.121Z,35.40
2018-05-13T11:23:32.861Z,33.87
2018-05-13T11:28:27.064Z,36.10
2018-05-13T11:33:18.562Z,33.70
2018-05-13T11:38:10.639Z,33.40
2018-05-13T11:43:02.167Z,34.80
2018-05-13T11:47:53.644Z,32.77
2018-05-13T11:52:45.147Z,30.60
2018-05-13T11:57:36.653Z,33.23
2018-05-13T12:02:28.361Z,29.30
2018-05-13T12:07:20.692Z,29.30
2018-05-13T12:12:12.413Z,29.03
2018-05-13T12:17:04.649Z,28.67
2018-05-13T12:21:56.213Z,30.10
2018-05-13T12:26:47.722Z,28.93
2018-05-13T12:31:39.221Z,28.73
2018-05-13T12:36:30.787Z,29.23
2018-05-13T12:41:22.296Z,27.57
2018-05-13T12:46:13.855Z,27.13
2018-05-13T12:51:05.386Z,26.93
2018-05-13T12:55:56.996Z,27.77
2018-05-13T13:00:48.482Z,27.40
2018-05-13T13:05:40.007Z,26.00
2018-05-13T13:10:31.539Z,26.00
2018-05-13T13:15:23.053Z,24.97
2018-05-13T13:20:14.566Z,25.30
2018-05-13T13:25:06.049Z,25.70
2018-05-13T13:29:57.715Z,26.87
2018-05-13T13:34:50.005Z,25.17
2018-05-13T13:39:41.490Z,24.97
2018-05-13T13:44:32.971Z,24.53
2018-05-13T13:49:24.518Z,23.13
2018-05-13T13:54:16.064Z,22.77
2018-05-13T13:59:08.295Z,22.70
2018-05-13T14:03:59.819Z,22.47
2018-05-13T14:08:52.137Z,22.10
2018-05-13T14:13:44.377Z,22.03
2018-05-13T14:18:35.959Z,22.17
2018-05-13T14:23:27.435Z,23.00
2018-05-13T14:28:18.960Z,21.97
2018-05-13T14:33:10.498Z,21.83
2018-05-13T14:38:02.794Z,20.87
2018-05-13T14:42:54.289Z,20.93
2018-05-13T14:47:45.934Z,21.43
2018-05-13T14:52:37.446Z,21.53
2018-05-13T14:57:28.968Z,21.00
2018-05-13T15:02:20.482Z,23.63
2018-05-13T15:07:25.065Z,24.20
2018-05-13T15:12:16.528Z,25.83
2018-05-13T15:17:08.776Z,24.67
2018-05-13T15:22:01.683Z,25.33
2018-05-13T15:26:53.154Z,28.07
2018-05-13T15:31:44.676Z,27.90
2018-05-13T15:36:36.169Z,28.57
2018-05-13T15:41:27.681Z,28.97
2018-05-13T15:46:19.951Z,29.17
2018-05-13T15:51:11.445Z,29.70
2018-05-13T15:56:03.716Z,28.33
2018-05-13T16:00:55.981Z,30.07
2018-05-13T16:05:49.053Z,28.67
2018-05-13T16:10:40.511Z,28.97
2018-05-13T16:15:32.018Z,28.67
2018-05-13T16:20:23.511Z,29.13
2018-05-13T16:25:15.008Z,29.73
2018-05-13T16:30:06.557Z,30.27
2018-05-13T16:34:59.074Z,28.93
2018-05-13T16:39:51.333Z,29.03
2018-05-13T16:44:42.838Z,29.47
2018-05-13T16:49:35.067Z,28.47
2018-05-13T16:54:27.327Z,29.33
2018-05-13T16:59:18.796Z,30.10
2018-05-13T17:04:10.270Z,28.83
2018-05-13T17:09:01.896Z,27.53
2018-05-13T17:13:53.391Z,28.87
2018-05-13T17:18:44.979Z,28.10
2018-05-13T17:23:36.531Z,27.10
2018-05-13T17:28:27.996Z,26.47
2018-05-13T17:33:19.911Z,26.00
2018-05-13T17:38:11.421Z,25.97
2018-05-13T17:43:02.937Z,24.90
2018-05-13T17:47:54.533Z,25.00
2018-05-13T17:52:45.971Z,26.23
2018-05-13T17:57:38.099Z,24.73
2018-05-13T18:02:29.599Z,25.60
2018-05-13T18:07:21.835Z,24.63
2018-05-13T18:12:14.033Z,22.67
2018-05-13T18:17:06.261Z,24.10
2018-05-13T18:21:57.771Z,25.73
2018-05-13T18:26:49.289Z,24.00
2018-05-13T18:31:40.845Z,24.83
2018-05-13T18:36:32.356Z,25.23
2018-05-13T18:41:23.901Z,26.13
2018-05-13T18:46:15.630Z,28.57
2018-05-13T18:51:07.593Z,29.33
2018-05-13T18:55:59.491Z,29.57
2018-05-13T19:00:51.865Z,29.97
2018-05-13T19:05:43.728Z,30.80
2018-05-13T19:10:35.393Z,30.87
2018-05-13T19:15:27.015Z,29.87
2018-05-13T19:20:18.661Z,29.07
2018-05-13T19:25:10.584Z,31.93
2018-05-13T19:30:02.629Z,29.63
2018-05-13T19:34:54.267Z,30.80
2018-05-13T19:39:45.930Z,31.50
2018-05-13T19:44:37.645Z,32.27
2018-05-13T19:49:29.271Z,31.20
2018-05-13T19:54:21.427Z,32.90
2018-05-13T19:59:13.183Z,32.33
2018-05-13T20:04:04.942Z,32.23
2018-05-13T20:08:56.751Z,32.30
2018-05-13T20:13:48.340Z,32.00
2018-05-13T20:18:40.684Z,33.07
2018-05-13T20:23:32.985Z,32.93
2018-05-13T20:28:24.630Z,32.83
2018-05-13T20:33:16.162Z,32.13
2018-05-13T20:38:08.205Z,33.17
2018-05-13T20:42:59.713Z,31.47
2018-05-13T20:47:51.268Z,32.33
2018-05-13T20:52:42.764Z,30.97
2018-05-13T20:57:36.127Z,33.67
2018-05-13T21:02:27.616Z,31.93
2018-05-13T21:07:19.133Z,32.00
2018-05-13T21:12:10.650Z,33.43
2018-05-13T21:17:02.148Z,32.50
2018-05-13T21:21:54.420Z,31.77
2018-05-13T21:26:46.025Z,32.83
2018-05-13T21:31:37.522Z,33.20
2018-05-13T21:36:29.002Z,33.43
2018-05-13T21:41:20.498Z,35.40
2018-05-13T21:46:12.370Z,34.87
2018-05-13T21:51:03.871Z,36.03
2018-05-13T21:55:55.405Z,35.57
2018-05-13T22:00:46.929Z,36.60
2018-05-13T22:05:38.407Z,37.13
2018-05-13T22:10:29.905Z,35.93
2018-05-13T22:15:21.436Z,36.13
2018-05-13T22:20:12.960Z,36.40
2018-05-13T22:25:04.470Z,36.80
2018-05-13T22:29:56.708Z,35.27
2018-05-13T22:34:48.186Z,36.43
2018-05-13T22:39:39.706Z,35.57
2018-05-13T22:44:31.206Z,35.70
2018-05-13T22:49:22.778Z,35.20
2018-05-13T22:54:14.333Z,34.80
2018-05-13T22:59:05.855Z,33.87
2018-05-13T23:03:57.334Z,33.47
2018-05-13T23:08:49.575Z,33.93
2018-05-13T23:13:41.088Z,33.50
2018-05-13T23:18:32.687Z,32.47
2018-05-13T23:23:24.123Z,32.80
2018-05-13T23:28:15.635Z,34.50
2018-05-13T23:33:07.952Z,36.97
2018-05-13T23:37:59.492Z,36.87
2018-05-13T23:42:50.983Z,38.70
2018-05-13T23:47:42.514Z,40.43
2018-05-13T23:52:34.024Z,41.30
2018-05-13T23:57:26.280Z,38.93
